Time;durP1;ratioP1;P1;durP2;ratioP2;P2;SDS_P1;SDS_P2;PMS_P1;PMS_P2;Temp;Humidity;BMP_temperature;BMP_pressure;BME280_temperature;BME280_humidity;BME280_pressure;Samples;Min_cycle;Max_cycle;Signal;HPM_P1;HPM_P2
2021/04/27 00:00:09;;;;;;;;;;;12.10;51.80;;;;;;4304764;33;20014;-77
2021/04/27 00:02:44;;;;;;;;;;;12.10;51.70;;;;;;4291276;33;20029;-77
2021/04/27 00:05:17;;;;;;;;;;;12.10;51.70;;;;;;4290374;33;43666;-77
2021/04/27 00:07:49;;;;;;;;;;;12.00;51.90;;;;;;4290963;33;32368;-77
2021/04/27 00:10:17;;;;;;;;;;;12.00;52.00;;;;;;4303963;33;24329;-77
2021/04/27 00:12:50;;;;;;;;;;;12.00;52.10;;;;;;4289702;33;45107;-77
2021/04/27 00:15:27;;;;;;;;;;;12.00;52.10;;;;;;4289975;33;44097;-77
2021/04/27 00:17:56;;;;;;;;;;;12.00;52.10;;;;;;4290614;33;31219;-77
2021/04/27 00:20:31;;;;;;;;;;;12.00;52.20;;;;;;4291721;33;20010;-77
2021/04/27 00:23:01;;;;;;;;;;;12.00;52.20;;;;;;4290071;33;43586;-77
2021/04/27 00:25:33;;;;;;;;;;;12.00;52.30;;;;;;4303222;33;41965;-77
2021/04/27 00:28:05;;;;;;;;;;;11.90;52.20;;;;;;4290435;33;31813;-76
2021/04/27 00:30:35;;;;;;;;;;;11.90;52.30;;;;;;4290568;33;31179;-77
2021/04/27 00:33:10;;;;;;;;;;;11.90;52.40;;;;;;4290661;33;20002;-77
2021/04/27 00:35:40;;;;;;;;;;;11.90;52.40;;;;;;4290373;33;38425;-77
2021/04/27 00:38:12;;;;;;;;;;;11.90;52.40;;;;;;4291124;33;20140;-77
2021/04/27 00:40:48;;;;;;;;;;;11.90;52.50;;;;;;4290906;33;32934;-77
2021/04/27 00:43:20;;;;;;;;;;;11.90;52.50;;;;;;4303249;33;36269;-76
2021/04/27 00:45:52;;;;;;;;;;;11.90;52.40;;;;;;4291300;33;20020;-77
2021/04/27 00:48:23;;;;;;;;;;;11.90;52.50;;;;;;4289597;33;34317;-77
2021/04/27 00:51:00;;;;;;;;;;;11.80;52.50;;;;;;4291084;33;20062;-77
2021/04/27 00:53:30;;;;;;;;;;;11.80;52.60;;;;;;4303063;33;40981;-77
2021/04/27 00:56:00;;;;;;;;;;;11.80;52.60;;;;;;4290306;33;19994;-77
2021/04/27 00:58:35;;;;;;;;;;;11.80;52.60;;;;;;4290842;33;20125;-77
2021/04/27 01:01:07;;;;;;;;;;;11.80;52.70;;;;;;4278387;33;20002;-77
2021/04/27 01:03:38;;;;;;;;;;;11.70;52.70;;;;;;4290439;33;20014;-77
2021/04/27 01:06:10;;;;;;;;;;;11.70;52.70;;;;;;4304042;33;20078;-77
2021/04/27 01:08:52;;;;;;;;;;;11.70;52.80;;;;;;4291097;33;20014;-77
2021/04/27 01:11:31;;;;;;;;;;;11.70;52.90;;;;;;4278469;33;19994;-77
2021/04/27 01:14:03;;;;;;;;;;;11.70;52.80;;;;;;4277270;33;40555;-77
2021/04/27 01:16:44;;;;;;;;;;;11.60;52.80;;;;;;4303919;33;20074;-77
2021/04/27 01:19:22;;;;;;;;;;;11.60;52.90;;;;;;4290452;33;20025;-77
2021/04/27 01:21:57;;;;;;;;;;;11.60;53.00;;;;;;4277934;33;20016;-77
2021/04/27 01:24:42;;;;;;;;;;;11.60;52.90;;;;;;4303478;33;20020;-77
2021/04/27 01:27:18;;;;;;;;;;;11.60;53.10;;;;;;4303449;33;20070;-77
2021/04/27 01:29:51;;;;;;;;;;;11.50;53.20;;;;;;4289168;33;43663;-77
2021/04/27 01:32:26;;;;;;;;;;;11.50;53.20;;;;;;4290264;33;20017;-77
2021/04/27 01:34:59;;;;;;;;;;;11.50;53.20;;;;;;4288996;33;43543;-77
2021/04/27 01:37:29;;;;;;;;;;;11.50;53.20;;;;;;4289331;33;36518;-77
2021/04/27 01:40:02;;;;;;;;;;;11.50;53.20;;;;;;4290142;33;20014;-77
2021/04/27 01:42:34;;;;;;;;;;;11.50;53.20;;;;;;4289083;33;24787;-77
2021/04/27 01:45:10;;;;;;;;;;;11.50;53.20;;;;;;4290317;33;20018;-77
2021/04/27 01:47:39;;;;;;;;;;;11.40;53.10;;;;;;4302325;33;42066;-77
2021/04/27 01:50:11;;;;;;;;;;;11.40;53.20;;;;;;4302921;33;20033;-77
2021/04/27 01:52:44;;;;;;;;;;;11.40;53.30;;;;;;4278192;33;20065;-77
2021/04/27 01:55:15;;;;;;;;;;;11.40;53.40;;;;;;4303000;33;20025;-77
2021/04/27 01:57:45;;;;;;;;;;;11.40;53.40;;;;;;4290139;33;20361;-77
2021/04/27 02:00:22;;;;;;;;;;;11.40;53.40;;;;;;4302632;33;20079;-77
2021/04/27 02:02:52;;;;;;;;;;;11.40;53.40;;;;;;4302860;33;20010;-77
2021/04/27 02:05:21;;;;;;;;;;;11.30;53.40;;;;;;4302595;33;20062;-77
2021/04/27 02:07:56;;;;;;;;;;;11.30;53.40;;;;;;4290396;33;20010;-77
2021/04/27 02:10:28;;;;;;;;;;;11.30;53.40;;;;;;4303042;33;20086;-78
2021/04/27 02:13:04;;;;;;;;;;;11.30;53.40;;;;;;4303001;33;20058;-77
2021/04/27 02:15:35;;;;;;;;;;;11.20;53.50;;;;;;4288604;33;42818;-77
2021/04/27 02:18:23;;;;;;;;;;;11.20;53.40;;;;;;4289494;33;28129;-77
2021/04/27 02:20:53;;;;;;;;;;;11.20;53.50;;;;;;4287987;33;46746;-77
2021/04/27 02:23:23;;;;;;;;;;;11.20;53.50;;;;;;4288166;33;31498;-77
2021/04/27 02:25:53;;;;;;;;;;;11.20;53.60;;;;;;4288093;33;40818;-77
2021/04/27 02:28:27;;;;;;;;;;;11.10;53.60;;;;;;4277836;33;20028;-77
2021/04/27 02:31:02;;;;;;;;;;;11.10;53.60;;;;;;4289521;33;20002;-77
2021/04/27 02:33:34;;;;;;;;;;;11.10;53.70;;;;;;4288319;33;43309;-77
2021/04/27 02:36:04;;;;;;;;;;;11.10;53.60;;;;;;4288193;33;45406;-77
2021/04/27 02:38:36;;;;;;;;;;;11.10;53.70;;;;;;4289080;33;20014;-77
2021/04/27 02:41:06;;;;;;;;;;;11.10;53.80;;;;;;4276585;33;42533;-77
2021/04/27 02:43:40;;;;;;;;;;;11.00;53.70;;;;;;4302796;33;20011;-77
2021/04/27 02:46:19;;;;;;;;;;;11.00;53.80;;;;;;4289492;33;20172;-77
2021/04/27 02:48:49;;;;;;;;;;;11.00;53.80;;;;;;4288517;33;39600;-77
2021/04/27 02:51:19;;;;;;;;;;;11.00;53.90;;;;;;4289490;33;20009;-77
2021/04/27 02:53:49;;;;;;;;;;;11.00;53.90;;;;;;4289673;33;20054;-76
2021/04/27 02:56:22;;;;;;;;;;;11.00;53.90;;;;;;4289403;33;20049;-77
2021/04/27 02:58:52;;;;;;;;;;;11.00;53.90;;;;;;4288819;33;27050;-77
2021/04/27 03:01:19;;;;;;;;;;;10.90;54.00;;;;;;4301849;33;32445;-77
2021/04/27 03:03:51;;;;;;;;;;;10.90;54.00;;;;;;4302191;33;20020;-77
2021/04/27 03:06:21;;;;;;;;;;;10.90;54.00;;;;;;4287805;33;46851;-77
2021/04/27 03:08:53;;;;;;;;;;;10.90;54.10;;;;;;4289493;33;20120;-77
2021/04/27 03:11:28;;;;;;;;;;;10.90;54.10;;;;;;4288181;33;35007;-77
2021/04/27 03:14:04;;;;;;;;;;;10.90;54.20;;;;;;4277525;33;20020;-77
2021/04/27 03:16:42;;;;;;;;;;;10.80;54.20;;;;;;4276432;33;46922;-77
2021/04/27 03:19:11;;;;;;;;;;;10.90;54.20;;;;;;4289205;33;20022;-77
2021/04/27 03:21:47;;;;;;;;;;;10.80;54.20;;;;;;4288788;33;35289;-77
2021/04/27 03:24:17;;;;;;;;;;;10.80;54.20;;;;;;4289525;33;20018;-76
2021/04/27 03:26:50;;;;;;;;;;;10.80;54.30;;;;;;4289190;33;20050;-77
2021/04/27 03:29:26;;;;;;;;;;;10.80;54.30;;;;;;4288445;33;37879;-77
2021/04/27 03:31:55;;;;;;;;;;;10.80;54.40;;;;;;4301218;33;44710;-77
2021/04/27 03:34:30;;;;;;;;;;;10.80;54.40;;;;;;4277959;33;20018;-77
2021/04/27 03:37:03;;;;;;;;;;;10.70;54.40;;;;;;4303892;33;42833;-77
2021/04/27 03:39:32;;;;;;;;;;;10.70;54.30;;;;;;4304878;33;20069;-77
2021/04/27 03:42:07;;;;;;;;;;;10.70;54.30;;;;;;4280263;33;20012;-77
2021/04/27 03:44:42;;;;;;;;;;;10.70;54.20;;;;;;4292013;33;20054;-77
2021/04/27 03:47:12;;;;;;;;;;;10.70;54.30;;;;;;4303783;33;40350;-77
2021/04/27 03:49:42;;;;;;;;;;;10.70;54.30;;;;;;4290630;33;45019;-77
2021/04/27 03:52:14;;;;;;;;;;;10.60;54.30;;;;;;4279520;33;20321;-77
2021/04/27 03:54:47;;;;;;;;;;;10.60;54.40;;;;;;4291776;33;20434;-77
2021/04/27 03:57:19;;;;;;;;;;;10.60;54.40;;;;;;4304193;33;23170;-77
2021/04/27 03:59:51;;;;;;;;;;;10.50;54.40;;;;;;4290566;33;41381;-77
2021/04/27 04:02:21;;;;;;;;;;;10.50;54.50;;;;;;4304493;33;20455;-77
2021/04/27 04:04:56;;;;;;;;;;;10.40;54.60;;;;;;4290968;33;39366;-77
2021/04/27 04:07:28;;;;;;;;;;;10.30;54.70;;;;;;4289855;33;43216;-77
2021/04/27 04:10:03;;;;;;;;;;;10.30;54.80;;;;;;4303498;33;41341;-77
2021/04/27 04:12:36;;;;;;;;;;;10.30;54.80;;;;;;4290256;33;44511;-77
2021/04/27 04:15:04;;;;;;;;;;;10.30;54.70;;;;;;4289681;33;44740;-77
2021/04/27 04:17:39;;;;;;;;;;;10.30;54.80;;;;;;4303972;33;20464;-77
2021/04/27 04:20:16;;;;;;;;;;;10.30;54.80;;;;;;4290382;33;40323;-77
2021/04/27 04:22:51;;;;;;;;;;;10.20;54.90;;;;;;4303333;33;41857;-77
2021/04/27 04:25:23;;;;;;;;;;;10.20;54.90;;;;;;4303498;33;35581;-77
2021/04/27 04:27:55;;;;;;;;;;;10.20;54.90;;;;;;4291172;33;20006;-77
2021/04/27 04:30:28;;;;;;;;;;;10.20;54.90;;;;;;4290418;33;32503;-77
2021/04/27 04:33:02;;;;;;;;;;;10.10;54.90;;;;;;4291253;33;20024;-77
2021/04/27 04:35:35;;;;;;;;;;;10.10;55.00;;;;;;4289656;33;41371;-77
2021/04/27 04:38:11;;;;;;;;;;;10.10;55.10;;;;;;4290667;33;34229;-76
2021/04/27 04:40:40;;;;;;;;;;;10.10;55.20;;;;;;4289937;33;44691;-77
2021/04/27 04:43:09;;;;;;;;;;;10.10;55.30;;;;;;4290550;33;20050;-77
2021/04/27 04:45:45;;;;;;;;;;;10.10;55.30;;;;;;4278943;33;20413;-77
2021/04/27 04:48:17;;;;;;;;;;;10.10;55.40;;;;;;4289368;33;43325;-76
2021/04/27 04:50:52;;;;;;;;;;;10.10;55.50;;;;;;4302912;33;43206;-76
2021/04/27 04:53:21;;;;;;;;;;;10.00;55.50;;;;;;4290060;33;43603;-77
2021/04/27 04:55:56;;;;;;;;;;;10.00;55.60;;;;;;4304150;33;20021;-76
2021/04/27 04:58:25;;;;;;;;;;;10.00;55.60;;;;;;4304090;33;20033;-76
2021/04/27 05:00:59;;;;;;;;;;;10.00;55.80;;;;;;4290793;33;20029;-76
2021/04/27 05:03:31;;;;;;;;;;;10.00;55.80;;;;;;4303768;33;20010;-76
2021/04/27 05:06:03;;;;;;;;;;;10.00;55.90;;;;;;4290608;33;20115;-76
2021/04/27 05:08:43;;;;;;;;;;;10.00;56.00;;;;;;4303656;33;20011;-76
2021/04/27 05:11:12;;;;;;;;;;;9.90;55.90;;;;;;4302290;33;43635;-76
2021/04/27 05:13:42;;;;;;;;;;;10.00;56.10;;;;;;4303860;33;20010;-76
2021/04/27 05:16:14;;;;;;;;;;;9.90;56.00;;;;;;4291008;33;20024;-76
2021/04/27 05:18:49;;;;;;;;;;;9.90;56.20;;;;;;4303755;33;20016;-76
2021/04/27 05:21:25;;;;;;;;;;;9.90;56.30;;;;;;4277252;33;46421;-76
2021/04/27 05:23:55;;;;;;;;;;;9.90;56.40;;;;;;4289672;33;39001;-76
2021/04/27 05:26:30;;;;;;;;;;;9.90;56.40;;;;;;4303418;33;20032;-76
2021/04/27 05:28:59;;;;;;;;;;;9.90;56.40;;;;;;4288942;33;35559;-76
2021/04/27 05:31:29;;;;;;;;;;;9.90;56.50;;;;;;4302633;33;36776;-76
2021/04/27 05:33:59;;;;;;;;;;;9.90;56.60;;;;;;4290312;33;20035;-77
2021/04/27 05:36:34;;;;;;;;;;;9.90;56.60;;;;;;4290782;33;20006;-76
2021/04/27 05:39:06;;;;;;;;;;;9.90;56.60;;;;;;4290229;33;20010;-76
2021/04/27 05:41:39;;;;;;;;;;;9.90;56.70;;;;;;4302638;33;25738;-76
2021/04/27 05:44:09;;;;;;;;;;;9.90;56.70;;;;;;4289263;33;44646;-76
2021/04/27 05:46:40;;;;;;;;;;;9.90;56.60;;;;;;4302232;33;38810;-76
2021/04/27 05:49:10;;;;;;;;;;;9.90;56.80;;;;;;4289692;33;20392;-76
2021/04/27 05:51:40;;;;;;;;;;;9.90;56.90;;;;;;4290335;33;20010;-76
2021/04/27 05:54:09;;;;;;;;;;;9.90;57.00;;;;;;4289588;33;24604;-76
2021/04/27 05:56:41;;;;;;;;;;;9.90;57.00;;;;;;4303102;33;20062;-76
2021/04/27 05:59:10;;;;;;;;;;;9.90;57.20;;;;;;4289834;33;20087;-76
2021/04/27 06:01:37;;;;;;;;;;;9.90;57.20;;;;;;4301426;33;40636;-76
2021/04/27 06:04:09;;;;;;;;;;;9.80;57.20;;;;;;4302989;33;20014;-76
2021/04/27 06:06:38;;;;;;;;;;;9.80;57.30;;;;;;4302158;33;32708;-76
2021/04/27 06:09:13;;;;;;;;;;;9.90;57.30;;;;;;4288465;33;43512;-76
2021/04/27 06:11:39;;;;;;;;;;;9.80;57.20;;;;;;4301690;33;43511;-76
2021/04/27 06:14:12;;;;;;;;;;;9.80;57.30;;;;;;4303052;33;20023;-76
2021/04/27 06:16:44;;;;;;;;;;;9.80;57.30;;;;;;4302809;33;20014;-76
2021/04/27 06:19:16;;;;;;;;;;;9.80;57.40;;;;;;4289492;33;20006;-76
2021/04/27 06:21:47;;;;;;;;;;;9.80;57.60;;;;;;4301910;33;44812;-76
2021/04/27 06:24:16;;;;;;;;;;;9.80;57.70;;;;;;4301695;33;43676;-76
2021/04/27 06:26:48;;;;;;;;;;;9.80;57.70;;;;;;4289410;33;20006;-76
2021/04/27 06:29:23;;;;;;;;;;;9.80;57.80;;;;;;4302970;33;20096;-77
2021/04/27 06:31:55;;;;;;;;;;;9.80;57.90;;;;;;4276972;33;27773;-76
2021/04/27 06:34:25;;;;;;;;;;;9.90;57.90;;;;;;4301494;33;43535;-76
2021/04/27 06:36:52;;;;;;;;;;;9.80;57.80;;;;;;4277132;33;24247;-76
2021/04/27 06:39:24;;;;;;;;;;;9.90;57.90;;;;;;4288711;33;44638;-76
2021/04/27 06:41:55;;;;;;;;;;;9.90;58.00;;;;;;4302236;33;20018;-76
2021/04/27 06:44:27;;;;;;;;;;;9.90;57.90;;;;;;4288920;33;27286;-76
2021/04/27 06:46:57;;;;;;;;;;;9.90;58.00;;;;;;4301865;33;37876;-76
2021/04/27 06:49:29;;;;;;;;;;;9.90;57.80;;;;;;4301433;33;43801;-76
2021/04/27 06:51:56;;;;;;;;;;;9.90;57.60;;;;;;4276542;33;41612;-75
2021/04/27 06:54:23;;;;;;;;;;;10.00;57.40;;;;;;4276189;33;44613;-76
2021/04/27 06:56:52;;;;;;;;;;;9.90;57.10;;;;;;4301983;33;30442;-75
2021/04/27 06:59:40;;;;;;;;;;;9.90;57.10;;;;;;4290626;33;33059;-76
2021/04/27 07:02:08;;;;;;;;;;;10.00;57.30;;;;;;4301031;33;39621;-75
2021/04/27 07:04:40;;;;;;;;;;;10.00;57.40;;;;;;4301334;33;40124;-75
2021/04/27 07:07:09;;;;;;;;;;;10.00;57.40;;;;;;4288271;33;44714;-75
2021/04/27 07:09:39;;;;;;;;;;;10.10;57.60;;;;;;4301524;33;36247;-76
2021/04/27 07:12:06;;;;;;;;;;;10.10;57.70;;;;;;4291535;33;41689;-76
2021/04/27 07:14:36;;;;;;;;;;;10.10;57.80;;;;;;4305501;33;20400;-76
2021/04/27 07:17:08;;;;;;;;;;;10.10;57.80;;;;;;4292370;33;20061;-75
2021/04/27 07:19:38;;;;;;;;;;;10.10;57.90;;;;;;4304313;33;33860;-76
2021/04/27 07:22:11;;;;;;;;;;;10.20;58.00;;;;;;4292327;33;20349;-76
2021/04/27 07:24:38;;;;;;;;;;;10.20;57.90;;;;;;4305208;33;20094;-75
2021/04/27 07:27:06;;;;;;;;;;;10.20;58.00;;;;;;4280186;33;20017;-76
2021/04/27 07:29:36;;;;;;;;;;;10.20;57.90;;;;;;4290575;33;44806;-75
2021/04/27 07:32:07;;;;;;;;;;;10.30;57.80;;;;;;4290751;33;37400;-76
2021/04/27 07:34:37;;;;;;;;;;;10.30;57.30;;;;;;4305050;33;20007;-76
2021/04/27 07:37:07;;;;;;;;;;;10.30;57.30;;;;;;4304753;33;20002;-75
2021/04/27 07:39:36;;;;;;;;;;;10.30;57.40;;;;;;4279088;33;34878;-75
2021/04/27 07:42:03;;;;;;;;;;;10.30;57.30;;;;;;4303748;33;44286;-75
2021/04/27 07:44:30;;;;;;;;;;;10.40;57.20;;;;;;4291518;33;20445;-76
2021/04/27 07:47:02;;;;;;;;;;;10.40;57.60;;;;;;4290044;33;44832;-75
2021/04/27 07:49:37;;;;;;;;;;;10.40;57.20;;;;;;4290519;33;31502;-75
2021/04/27 07:52:03;;;;;;;;;;;10.40;57.00;;;;;;4303894;33;40359;-75
2021/04/27 07:54:30;;;;;;;;;;;10.40;56.70;;;;;;4290298;33;43867;-75
2021/04/27 07:57:02;;;;;;;;;;;10.50;56.70;;;;;;4290418;33;30831;-75
2021/04/27 07:59:35;;;;;;;;;;;10.40;56.80;;;;;;4290595;33;36657;-75
2021/04/27 08:02:04;;;;;;;;;;;10.50;56.70;;;;;;4287594;33;42947;-75
2021/04/27 08:04:33;;;;;;;;;;;10.50;56.90;;;;;;4287967;33;37939;-75
2021/04/27 08:07:00;;;;;;;;;;;10.50;56.70;;;;;;4289745;33;20021;-75
2021/04/27 08:09:29;;;;;;;;;;;10.50;56.60;;;;;;4289971;33;20049;-75
2021/04/27 08:12:01;;;;;;;;;;;10.60;56.70;;;;;;4287895;33;40207;-76
2021/04/27 08:14:32;;;;;;;;;;;10.50;56.70;;;;;;4288970;33;44849;-75
2021/04/27 08:16:58;;;;;;;;;;;10.60;56.70;;;;;;4275613;33;44610;-75
2021/04/27 08:19:28;;;;;;;;;;;10.60;56.70;;;;;;4287944;33;38136;-75
2021/04/27 08:21:55;;;;;;;;;;;10.60;56.70;;;;;;4288264;33;34230;-75
2021/04/27 08:24:22;;;;;;;;;;;10.60;56.70;;;;;;4287871;33;38030;-75
2021/04/27 08:27:08;;;;;;;;;;;10.60;56.60;;;;;;4288252;33;24266;-75
2021/04/27 08:29:41;;;;;;;;;;;10.60;56.60;;;;;;4287746;33;32651;-75
2021/04/27 08:32:11;;;;;;;;;;;10.70;56.70;;;;;;4287978;33;34861;-75
2021/04/27 08:34:38;;;;;;;;;;;10.70;56.70;;;;;;4288987;33;38797;-75
2021/04/27 08:37:13;;;;;;;;;;;10.70;56.70;;;;;;4287646;33;38049;-75
2021/04/27 08:39:42;;;;;;;;;;;10.70;56.70;;;;;;4289807;33;20010;-75
2021/04/27 08:42:17;;;;;;;;;;;10.70;56.70;;;;;;4287354;33;37321;-75
2021/04/27 08:44:44;;;;;;;;;;;10.70;56.60;;;;;;4287776;33;36131;-75
2021/04/27 08:47:16;;;;;;;;;;;10.80;56.60;;;;;;4288758;33;31700;-75
2021/04/27 08:49:51;;;;;;;;;;;10.80;56.70;;;;;;4288696;33;35617;-75
2021/04/27 08:52:18;;;;;;;;;;;10.80;56.70;;;;;;4288680;33;20018;-75
2021/04/27 08:54:45;;;;;;;;;;;10.80;56.60;;;;;;4287787;33;27853;-75
2021/04/27 08:57:19;;;;;;;;;;;10.80;56.60;;;;;;4287284;33;25317;-75
2021/04/27 08:59:54;;;;;;;;;;;10.80;56.40;;;;;;4287909;33;21146;-75
2021/04/27 09:02:25;;;;;;;;;;;10.80;56.40;;;;;;4276115;33;20054;-75
2021/04/27 09:04:52;;;;;;;;;;;10.90;56.50;;;;;;4289497;33;20014;-75
2021/04/27 09:07:22;;;;;;;;;;;10.90;56.40;;;;;;4289499;33;20007;-75
2021/04/27 09:09:54;;;;;;;;;;;10.90;56.40;;;;;;4287721;33;20058;-75
2021/04/27 09:12:23;;;;;;;;;;;10.90;56.30;;;;;;4288260;33;20038;-75
2021/04/27 09:14:55;;;;;;;;;;;11.00;56.40;;;;;;4288038;33;41754;-75
2021/04/27 09:17:26;;;;;;;;;;;10.90;56.30;;;;;;4287120;33;31868;-76
2021/04/27 09:19:54;;;;;;;;;;;10.90;56.20;;;;;;4287583;33;39306;-75
2021/04/27 09:22:22;;;;;;;;;;;11.00;56.30;;;;;;4286478;33;42429;-75
2021/04/27 09:24:53;;;;;;;;;;;11.00;56.20;;;;;;4287896;33;42129;-75
2021/04/27 09:27:25;;;;;;;;;;;11.00;56.20;;;;;;4286794;33;43640;-76
2021/04/27 09:29:52;;;;;;;;;;;11.00;56.20;;;;;;4287389;33;44690;-76
2021/04/27 09:32:29;;;;;;;;;;;11.00;56.20;;;;;;4286085;33;43279;-76
2021/04/27 09:35:16;;;;;;;;;;;11.00;56.10;;;;;;4286279;33;43641;-76
2021/04/27 09:38:03;;;;;;;;;;;11.10;56.20;;;;;;4287598;33;44686;-76
2021/04/27 09:40:44;;;;;;;;;;;11.10;56.10;;;;;;4288898;33;20017;-76
2021/04/27 09:43:11;;;;;;;;;;;11.10;56.00;;;;;;4275940;33;20055;-77
2021/04/27 09:45:43;;;;;;;;;;;11.10;56.00;;;;;;4275444;33;20018;-77
2021/04/27 09:48:31;;;;;;;;;;;11.20;56.10;;;;;;4288906;33;20011;-76
2021/04/27 09:51:19;;;;;;;;;;;11.10;56.00;;;;;;4287367;33;44677;-76
2021/04/27 09:54:10;;;;;;;;;;;11.20;56.10;;;;;;4277878;33;20003;-76
2021/04/27 09:56:39;;;;;;;;;;;11.20;56.10;;;;;;4286404;33;43617;-77
2021/04/27 09:59:28;;;;;;;;;;;11.20;55.90;;;;;;4287128;33;20066;-77
2021/04/27 10:02:01;;;;;;;;;;;11.20;55.90;;;;;;4290518;33;43539;-77
2021/04/27 10:04:30;;;;;;;;;;;11.20;55.90;;;;;;4288840;33;44730;-77
2021/04/27 10:07:01;;;;;;;;;;;11.30;55.90;;;;;;4301922;33;41311;-76
2021/04/27 10:09:28;;;;;;;;;;;11.30;55.90;;;;;;4277419;33;20007;-76
2021/04/27 10:12:03;;;;;;;;;;;11.40;55.80;;;;;;4303281;33;20025;-76
2021/04/27 10:14:30;;;;;;;;;;;11.30;55.80;;;;;;4303039;33;20068;-77
2021/04/27 10:17:05;;;;;;;;;;;11.40;55.80;;;;;;4290115;33;20467;-77
2021/04/27 10:19:35;;;;;;;;;;;11.40;55.70;;;;;;4302915;33;20016;-77
2021/04/27 10:22:09;;;;;;;;;;;11.40;55.70;;;;;;4277356;33;20016;-77
2021/04/27 10:24:42;;;;;;;;;;;11.50;55.80;;;;;;4302949;33;20116;-77
2021/04/27 10:27:11;;;;;;;;;;;11.50;55.70;;;;;;4301451;33;44325;-77
2021/04/27 10:29:44;;;;;;;;;;;11.50;55.60;;;;;;4288406;33;40520;-77
2021/04/27 10:32:19;;;;;;;;;;;11.50;55.50;;;;;;4302084;33;27093;-77
2021/04/27 10:34:58;;;;;;;;;;;11.60;55.50;;;;;;4288728;33;41356;-77
2021/04/27 10:37:31;;;;;;;;;;;11.60;55.50;;;;;;4289463;33;20008;-77
2021/04/27 10:40:00;;;;;;;;;;;11.60;55.40;;;;;;4288050;33;42445;-76
2021/04/27 10:42:34;;;;;;;;;;;11.60;55.50;;;;;;4302698;33;20052;-77
2021/04/27 10:45:10;;;;;;;;;;;11.70;55.50;;;;;;4290791;33;20037;-77
2021/04/27 10:47:43;;;;;;;;;;;11.70;55.60;;;;;;4291600;33;44712;-76
2021/04/27 10:50:27;;;;;;;;;;;11.70;55.50;;;;;;4304274;33;43772;-77
2021/04/27 10:52:54;;;;;;;;;;;11.70;55.50;;;;;;4304433;33;43447;-78
2021/04/27 10:55:33;;;;;;;;;;;11.80;56.00;;;;;;4305895;33;20081;-77
2021/04/27 10:58:01;;;;;;;;;;;11.80;55.40;;;;;;4304378;33;42870;-77
2021/04/27 11:00:47;;;;;;;;;;;11.80;55.40;;;;;;4293892;33;32535;-77
2021/04/27 11:03:16;;;;;;;;;;;11.90;55.50;;;;;;4290869;33;43676;-77
2021/04/27 11:06:08;;;;;;;;;;;11.90;55.40;;;;;;4293913;33;20114;-77
2021/04/27 11:08:53;;;;;;;;;;;11.90;55.40;;;;;;4304139;33;36133;-77
2021/04/27 11:11:26;;;;;;;;;;;11.90;55.40;;;;;;4291280;33;42028;-76
2021/04/27 11:14:14;;;;;;;;;;;12.00;55.50;;;;;;4292161;33;20006;-76
2021/04/27 11:16:52;;;;;;;;;;;12.00;55.40;;;;;;4292257;33;20036;-77
2021/04/27 11:19:22;;;;;;;;;;;12.00;55.40;;;;;;4292594;33;20070;-77
2021/04/27 11:21:58;;;;;;;;;;;12.10;55.50;;;;;;4292139;33;20364;-77
2021/04/27 11:24:39;;;;;;;;;;;12.10;55.50;;;;;;4292262;33;20024;-77
2021/04/27 11:27:33;;;;;;;;;;;12.10;55.30;;;;;;4305351;33;20016;-76
2021/04/27 11:30:06;;;;;;;;;;;12.20;55.30;;;;;;4278764;33;44292;-77
2021/04/27 11:32:38;;;;;;;;;;;12.20;55.30;;;;;;4291274;33;22664;-77
2021/04/27 11:35:16;;;;;;;;;;;12.20;55.30;;;;;;4305349;33;20020;-76
2021/04/27 11:37:50;;;;;;;;;;;12.30;55.30;;;;;;4304165;33;43346;-77
2021/04/27 11:40:23;;;;;;;;;;;12.30;55.40;;;;;;4291504;33;20006;-76
2021/04/27 11:42:55;;;;;;;;;;;12.30;55.30;;;;;;4305075;33;20093;-76
2021/04/27 11:45:22;;;;;;;;;;;12.40;55.30;;;;;;4292038;33;20066;-76
2021/04/27 11:47:54;;;;;;;;;;;12.40;55.10;;;;;;4304513;33;20486;-77
2021/04/27 11:50:29;;;;;;;;;;;12.50;55.10;;;;;;4291923;33;20051;-76
2021/04/27 11:53:08;;;;;;;;;;;12.50;55.00;;;;;;4291983;33;20414;-77
2021/04/27 11:55:41;;;;;;;;;;;12.50;54.90;;;;;;4291534;33;20005;-77
2021/04/27 11:58:19;;;;;;;;;;;12.50;55.00;;;;;;4291699;33;20081;-76
2021/04/27 12:00:52;;;;;;;;;;;12.60;54.90;;;;;;4304574;33;20010;-77
2021/04/27 12:03:32;;;;;;;;;;;12.60;54.90;;;;;;4304493;33;20391;-77
2021/04/27 12:06:09;;;;;;;;;;;12.60;54.70;;;;;;4290367;33;37590;-76
2021/04/27 12:08:42;;;;;;;;;;;12.70;54.70;;;;;;4291887;33;20022;-76
2021/04/27 12:11:12;;;;;;;;;;;12.70;54.70;;;;;;4291627;33;20129;-76
2021/04/27 12:14:01;;;;;;;;;;;12.70;54.70;;;;;;4279609;33;20010;-76
2021/04/27 12:16:31;;;;;;;;;;;12.80;54.70;;;;;;4302942;33;42715;-76
2021/04/27 12:19:02;;;;;;;;;;;12.80;54.70;;;;;;4304648;33;20061;-77
2021/04/27 12:21:40;;;;;;;;;;;12.90;54.50;;;;;;4290905;33;44097;-76
2021/04/27 12:24:20;;;;;;;;;;;12.90;54.60;;;;;;4304270;33;20024;-76
2021/04/27 12:27:06;;;;;;;;;;;12.90;54.60;;;;;;4291004;33;20016;-77
2021/04/27 12:29:37;;;;;;;;;;;12.90;54.60;;;;;;4278767;33;19999;-76
2021/04/27 12:32:09;;;;;;;;;;;13.00;54.70;;;;;;4290928;33;19998;-76
2021/04/27 12:34:58;;;;;;;;;;;13.00;54.60;;;;;;4278337;33;37944;-76
2021/04/27 12:37:26;;;;;;;;;;;13.00;54.50;;;;;;4303849;33;20372;-77
2021/04/27 12:39:53;;;;;;;;;;;13.00;54.40;;;;;;4303703;33;20051;-77
2021/04/27 12:42:28;;;;;;;;;;;13.10;54.60;;;;;;4290831;33;20006;-76
2021/04/27 12:45:04;;;;;;;;;;;13.10;54.70;;;;;;4279154;33;20008;-77
2021/04/27 12:47:33;;;;;;;;;;;13.10;54.50;;;;;;4291427;33;20028;-77
2021/04/27 12:50:09;;;;;;;;;;;13.20;54.50;;;;;;4291456;33;20369;-76
2021/04/27 12:52:40;;;;;;;;;;;13.20;54.50;;;;;;4290314;33;20942;-77
2021/04/27 12:55:14;;;;;;;;;;;13.20;54.60;;;;;;4303855;33;20002;-76
2021/04/27 12:57:43;;;;;;;;;;;13.30;54.50;;;;;;4303811;33;20032;-77
2021/04/27 13:00:13;;;;;;;;;;;13.30;54.20;;;;;;4278853;33;20003;-77
2021/04/27 13:02:48;;;;;;;;;;;13.40;54.30;;;;;;4290562;33;20073;-77
2021/04/27 13:05:25;;;;;;;;;;;13.40;54.30;;;;;;4278766;33;20062;-77
2021/04/27 13:08:05;;;;;;;;;;;13.40;54.30;;;;;;4278818;33;20021;-77
2021/04/27 13:10:40;;;;;;;;;;;13.50;54.40;;;;;;4303883;33;20010;-77
2021/04/27 13:13:11;;;;;;;;;;;13.50;54.40;;;;;;4303054;33;20018;-77
2021/04/27 13:15:43;;;;;;;;;;;13.60;54.40;;;;;;4290957;33;20482;-76
2021/04/27 13:18:23;;;;;;;;;;;13.60;54.40;;;;;;4303755;33;20546;-77
2021/04/27 13:20:54;;;;;;;;;;;13.60;54.30;;;;;;4303695;33;20121;-76
2021/04/27 13:23:28;;;;;;;;;;;13.70;54.30;;;;;;4302921;33;20026;-76
2021/04/27 13:26:08;;;;;;;;;;;13.70;54.30;;;;;;4303708;33;20041;-76
2021/04/27 13:28:43;;;;;;;;;;;13.80;54.30;;;;;;4303560;33;20006;-76
2021/04/27 13:31:13;;;;;;;;;;;13.80;54.20;;;;;;4289956;33;20063;-76
2021/04/27 13:33:42;;;;;;;;;;;13.80;54.10;;;;;;4290031;33;20081;-76
2021/04/27 13:36:19;;;;;;;;;;;13.90;54.10;;;;;;4290226;33;20080;-76
2021/04/27 13:38:46;;;;;;;;;;;13.90;54.10;;;;;;4290227;33;20715;-76
2021/04/27 13:41:18;;;;;;;;;;;13.90;54.10;;;;;;4277833;33;20013;-76
2021/04/27 13:43:49;;;;;;;;;;;14.00;54.10;;;;;;4290491;33;20018;-76
2021/04/27 13:46:22;;;;;;;;;;;14.00;53.90;;;;;;4289620;33;23958;-76
2021/04/27 13:48:49;;;;;;;;;;;14.00;54.00;;;;;;4289428;33;27225;-76
2021/04/27 13:51:16;;;;;;;;;;;14.10;54.00;;;;;;4277391;33;23012;-76
2021/04/27 13:53:45;;;;;;;;;;;14.10;54.00;;;;;;4302553;33;25992;-76
2021/04/27 13:56:16;;;;;;;;;;;14.20;54.00;;;;;;4302475;33;20595;-76
2021/04/27 13:58:43;;;;;;;;;;;14.20;54.00;;;;;;4276960;33;40550;-76
2021/04/27 14:01:12;;;;;;;;;;;14.20;54.00;;;;;;4289396;33;20091;-76
2021/04/27 14:03:44;;;;;;;;;;;14.30;53.80;;;;;;4301660;33;42005;-76
2021/04/27 14:06:13;;;;;;;;;;;14.30;53.90;;;;;;4288950;33;32469;-77
2021/04/27 14:08:40;;;;;;;;;;;14.40;53.80;;;;;;4276883;33;37767;-77
2021/04/27 14:11:07;;;;;;;;;;;14.40;53.80;;;;;;4288586;33;45453;-76
2021/04/27 14:13:37;;;;;;;;;;;14.50;53.80;;;;;;4276503;33;35431;-77
2021/04/27 14:16:07;;;;;;;;;;;14.50;53.70;;;;;;4302327;33;27354;-77
2021/04/27 14:18:37;;;;;;;;;;;14.50;53.60;;;;;;4288596;33;38841;-76
2021/04/27 14:21:09;;;;;;;;;;;14.60;53.70;;;;;;4277497;33;20006;-76
2021/04/27 14:23:38;;;;;;;;;;;14.60;53.60;;;;;;4288542;33;40314;-76
2021/04/27 14:26:07;;;;;;;;;;;14.70;53.60;;;;;;4301191;33;42256;-77
2021/04/27 14:28:42;;;;;;;;;;;14.70;53.50;;;;;;4288236;33;38105;-77
2021/04/27 14:31:14;;;;;;;;;;;14.70;53.30;;;;;;4301744;33;41111;-77
2021/04/27 14:33:46;;;;;;;;;;;14.80;53.30;;;;;;4288875;33;29653;-76
2021/04/27 14:36:18;;;;;;;;;;;14.80;53.20;;;;;;4277104;33;26106;-76
2021/04/27 14:38:50;;;;;;;;;;;14.80;53.00;;;;;;4276767;33;19998;-76
2021/04/27 14:41:23;;;;;;;;;;;14.90;53.10;;;;;;4287888;33;44362;-76
2021/04/27 14:43:53;;;;;;;;;;;14.90;53.00;;;;;;4288920;33;30469;-76
2021/04/27 14:46:19;;;;;;;;;;;14.90;52.90;;;;;;4277813;33;20113;-76
2021/04/27 14:48:47;;;;;;;;;;;15.00;52.70;;;;;;4289253;33;20020;-76